createdAt,value
2023-05-15T00:00:57.733Z,6.63
2023-05-15T00:03:31.651Z,6.70
2023-05-15T00:06:02.743Z,6.67
2023-05-15T00:08:33.695Z,6.63
2023-05-15T00:11:07.257Z,7.07
2023-05-15T00:13:38.648Z,7.40
2023-05-15T00:16:10.344Z,6.53
2023-05-15T00:18:41.249Z,6.90
2023-05-15T00:21:12.207Z,6.53
2023-05-15T00:23:43.204Z,6.33
2023-05-15T00:26:17.096Z,7.33
2023-05-15T00:28:48.032Z,6.87
2023-05-15T00:31:19.076Z,7.27
2023-05-15T00:33:50.452Z,6.57
2023-05-15T00:36:22.117Z,6.80
2023-05-15T00:38:54.035Z,6.90
2023-05-15T00:41:32.179Z,6.60
2023-05-15T00:44:04.788Z,7.80
2023-05-15T00:46:38.184Z,6.83
2023-05-15T00:49:13.670Z,7.70
2023-05-15T00:51:45.133Z,7.30
2023-05-15T00:54:16.411Z,7.20
2023-05-15T00:56:52.068Z,8.00
2023-05-15T00:59:24.858Z,8.73
2023-05-15T01:01:55.838Z,8.30
2023-05-15T01:04:26.872Z,8.40
2023-05-15T01:06:58.103Z,8.60
2023-05-15T01:09:31.414Z,7.87
2023-05-15T01:12:07.819Z,8.70
2023-05-15T01:14:38.936Z,7.70
2023-05-15T01:17:09.937Z,8.83
2023-05-15T01:19:42.401Z,8.37
2023-05-15T01:22:36.703Z,8.70
2023-05-15T01:25:37.472Z,8.30
2023-05-15T01:28:15.391Z,8.57
2023-05-15T01:30:47.616Z,8.73
2023-05-15T01:33:23.826Z,8.53
2023-05-15T01:36:02.006Z,8.53
2023-05-15T01:38:39.774Z,9.10
2023-05-15T01:41:18.229Z,8.97
2023-05-15T01:43:59.900Z,9.20
2023-05-15T01:46:34.027Z,8.23
2023-05-15T01:49:05.627Z,8.50
2023-05-15T01:51:36.954Z,8.33
2023-05-15T01:54:09.691Z,8.77
2023-05-15T01:56:43.346Z,8.93
2023-05-15T01:59:17.441Z,10.03
2023-05-15T02:01:48.940Z,9.97
2023-05-15T02:04:21.795Z,9.07
2023-05-15T02:06:53.375Z,9.10
2023-05-15T02:09:25.018Z,9.37
2023-05-15T02:11:56.863Z,8.53
2023-05-15T02:14:31.970Z,8.93
2023-05-15T02:17:05.703Z,9.10
2023-05-15T02:19:36.651Z,8.90
2023-05-15T02:22:08.022Z,9.27
2023-05-15T02:24:38.911Z,9.10
2023-05-15T02:27:20.449Z,9.43
2023-05-15T02:30:06.308Z,9.93
2023-05-15T02:32:52.476Z,9.33
2023-05-15T02:35:33.891Z,9.40
2023-05-15T02:38:10.815Z,10.53
2023-05-15T02:40:43.239Z,9.93
2023-05-15T02:43:15.446Z,11.27
2023-05-15T02:45:49.528Z,10.87
2023-05-15T02:48:21.233Z,10.73
2023-05-15T02:50:52.513Z,11.87
2023-05-15T02:53:23.506Z,13.20
2023-05-15T02:55:54.778Z,13.60
2023-05-15T02:58:29.066Z,14.30
2023-05-15T03:01:02.912Z,13.43
2023-05-15T03:03:33.859Z,12.70
2023-05-15T03:06:04.803Z,13.27
2023-05-15T03:08:37.755Z,13.87
2023-05-15T03:11:08.739Z,13.73
2023-05-15T03:13:39.826Z,15.80
2023-05-15T03:16:13.293Z,14.70
2023-05-15T03:18:44.385Z,16.60
2023-05-15T03:21:16.170Z,17.40
2023-05-15T03:23:47.081Z,15.70
2023-05-15T03:26:19.804Z,16.03
2023-05-15T03:28:51.145Z,17.00
2023-05-15T03:31:24.722Z,19.73
2023-05-15T03:33:55.696Z,19.33
2023-05-15T03:36:26.568Z,21.00
2023-05-15T03:38:57.628Z,20.93
2023-05-15T03:41:31.238Z,24.23
2023-05-15T03:44:02.070Z,22.13
2023-05-15T03:46:35.648Z,24.47
2023-05-15T03:49:06.787Z,24.57
2023-05-15T03:51:38.089Z,25.63
2023-05-15T03:54:09.323Z,25.53
2023-05-15T03:56:40.502Z,25.07
2023-05-15T03:59:11.432Z,26.17
2023-05-15T04:02:02.613Z,26.03
2023-05-15T04:04:35.608Z,26.50
2023-05-15T04:07:07.244Z,27.27
2023-05-15T04:09:38.865Z,28.00
2023-05-15T04:12:10.220Z,28.87
2023-05-15T04:14:41.360Z,28.90
2023-05-15T04:17:14.779Z,28.33
2023-05-15T04:19:46.054Z,28.67
2023-05-15T04:22:16.877Z,27.23
2023-05-15T04:24:47.868Z,30.00
2023-05-15T04:27:19.004Z,32.60
2023-05-15T04:29:49.810Z,30.80
2023-05-15T04:32:23.331Z,33.53
2023-05-15T04:34:54.300Z,31.90
2023-05-15T04:37:25.591Z,34.83
2023-05-15T04:39:56.407Z,34.53
2023-05-15T04:42:27.268Z,36.10
2023-05-15T04:44:58.158Z,35.47
2023-05-15T04:47:31.737Z,35.00
2023-05-15T04:50:03.020Z,38.60
2023-05-15T04:52:33.955Z,43.30
2023-05-15T04:55:04.928Z,42.57
2023-05-15T04:57:35.809Z,43.20
2023-05-15T05:00:10.399Z,44.00
2023-05-15T05:02:44.533Z,42.97
2023-05-15T05:05:19.596Z,44.77
2023-05-15T05:07:52.368Z,44.57
2023-05-15T05:10:23.218Z,46.60
2023-05-15T05:12:54.138Z,47.00
2023-05-15T05:15:25.115Z,47.50
2023-05-15T05:18:01.314Z,50.60
2023-05-15T05:20:32.502Z,46.27
2023-05-15T05:23:03.334Z,47.37
2023-05-15T05:25:35.181Z,48.40
2023-05-15T05:28:06.370Z,48.77
2023-05-15T05:30:37.459Z,50.73
2023-05-15T05:33:18.596Z,47.63
2023-05-15T05:35:49.794Z,51.50
2023-05-15T05:38:20.636Z,49.40
2023-05-15T05:40:51.716Z,48.20
2023-05-15T05:43:22.883Z,51.10
2023-05-15T05:45:53.748Z,50.07
2023-05-15T05:48:27.263Z,52.10
2023-05-15T05:50:58.507Z,51.70
2023-05-15T05:53:29.352Z,50.07
2023-05-15T05:56:00.328Z,48.70
2023-05-15T05:58:31.441Z,48.90
2023-05-15T06:01:02.414Z,48.67
2023-05-15T06:03:39.347Z,50.37
2023-05-15T06:06:10.302Z,48.07
2023-05-15T06:08:41.177Z,48.30
2023-05-15T06:11:12.055Z,48.70
2023-05-15T06:13:43.573Z,51.80
2023-05-15T06:16:14.521Z,49.30
2023-05-15T06:18:47.945Z,49.80
2023-05-15T06:21:18.912Z,49.70
2023-05-15T06:23:49.728Z,49.80
2023-05-15T06:26:22.080Z,51.03
2023-05-15T06:28:52.949Z,47.97
2023-05-15T06:31:24.132Z,48.87
2023-05-15T06:33:59.990Z,48.00
2023-05-15T06:36:30.766Z,48.33
2023-05-15T06:39:04.389Z,47.03
2023-05-15T06:41:36.126Z,47.67
2023-05-15T06:44:07.070Z,45.00
2023-05-15T06:46:39.476Z,48.73
2023-05-15T06:49:13.278Z,46.13
2023-05-15T06:51:44.158Z,44.10
2023-05-15T06:54:15.370Z,42.37
2023-05-15T06:56:46.210Z,39.97
2023-05-15T06:59:17.273Z,40.30
2023-05-15T07:01:48.173Z,38.70
2023-05-15T07:04:21.698Z,37.80
2023-05-15T07:06:52.635Z,39.07
2023-05-15T07:09:23.443Z,38.47
2023-05-15T07:11:54.331Z,38.00
2023-05-15T07:14:25.156Z,37.40
2023-05-15T07:16:56.089Z,38.97
2023-05-15T07:19:30.160Z,38.13
2023-05-15T07:22:03.211Z,38.70
2023-05-15T07:24:34.448Z,41.50
2023-05-15T07:27:05.334Z,41.97
2023-05-15T07:29:36.108Z,43.53
2023-05-15T07:32:07.598Z,43.53
2023-05-15T07:34:42.459Z,45.87
2023-05-15T07:37:14.908Z,47.20
2023-05-15T07:39:47.630Z,47.50
2023-05-15T07:42:18.476Z,47.40
2023-05-15T07:44:49.642Z,47.87
2023-05-15T07:47:20.880Z,49.33
2023-05-15T07:49:54.285Z,49.00
2023-05-15T07:52:25.114Z,50.70
2023-05-15T07:54:56.108Z,47.27
2023-05-15T07:57:27.041Z,47.17
2023-05-15T07:59:57.970Z,45.07
2023-05-15T08:02:31.766Z,48.20
2023-05-15T08:05:05.549Z,47.00
2023-05-15T08:07:36.425Z,47.77
2023-05-15T08:10:08.005Z,45.63
2023-05-15T08:12:38.953Z,44.13
2023-05-15T08:15:11.370Z,44.53
2023-05-15T08:17:42.366Z,43.57
2023-05-15T08:20:16.492Z,41.73
2023-05-15T08:22:47.550Z,40.90
2023-05-15T08:25:18.558Z,41.40
2023-05-15T08:27:49.374Z,41.43
2023-05-15T08:30:21.388Z,40.73
2023-05-15T08:32:52.649Z,40.87
2023-05-15T08:35:26.445Z,40.97
2023-05-15T08:37:58.038Z,40.20
2023-05-15T08:43:06.917Z,39.60
2023-05-15T08:45:39.473Z,39.50
2023-05-15T08:48:15.275Z,36.23
2023-05-15T08:50:52.835Z,38.63
2023-05-15T08:53:24.390Z,37.43
2023-05-15T08:55:55.497Z,35.00
2023-05-15T08:58:28.525Z,35.60
2023-05-15T09:01:01.562Z,32.90
2023-05-15T09:03:32.714Z,32.27
2023-05-15T09:06:08.000Z,32.40
2023-05-15T09:08:39.631Z,30.67
2023-05-15T09:11:11.314Z,28.90
2023-05-15T09:13:42.170Z,30.27
2023-05-15T09:16:13.432Z,28.60
2023-05-15T09:18:45.026Z,26.80
2023-05-15T09:21:29.177Z,27.40
2023-05-15T09:24:19.964Z,27.60
2023-05-15T09:27:04.733Z,24.53
2023-05-15T09:29:37.287Z,22.17
2023-05-15T09:32:10.755Z,22.63
2023-05-15T09:34:43.095Z,20.50
2023-05-15T09:37:31.393Z,20.17
2023-05-15T09:40:12.214Z,18.90
2023-05-15T09:42:43.125Z,17.90
2023-05-15T09:45:21.068Z,18.20
2023-05-15T09:47:52.178Z,16.63
2023-05-15T09:50:28.184Z,16.30
2023-05-15T09:53:05.244Z,16.23
2023-05-15T09:55:37.384Z,16.73
2023-05-15T09:58:12.878Z,17.80
2023-05-15T10:00:47.609Z,17.90
2023-05-15T10:03:21.504Z,17.10
2023-05-15T10:05:52.404Z,17.40
2023-05-15T10:08:32.034Z,18.20
2023-05-15T10:11:07.436Z,16.97
2023-05-15T10:13:39.672Z,17.23
2023-05-15T10:16:10.854Z,17.37
2023-05-15T10:18:43.337Z,16.77
2023-05-15T10:21:15.321Z,15.77
2023-05-15T10:23:50.597Z,16.03
2023-05-15T10:26:26.502Z,14.40
2023-05-15T10:28:59.178Z,16.07
2023-05-15T10:31:32.021Z,16.43
2023-05-15T10:34:03.776Z,16.13
2023-05-15T10:36:35.320Z,16.60
2023-05-15T10:39:10.655Z,15.83
2023-05-15T10:41:42.988Z,16.50
2023-05-15T10:44:18.799Z,15.67
2023-05-15T10:46:50.511Z,16.20
2023-05-15T10:49:26.478Z,15.70
2023-05-15T10:51:57.441Z,14.43
2023-05-15T10:54:31.551Z,15.70
2023-05-15T10:57:06.978Z,14.13
2023-05-15T10:59:38.033Z,14.50
2023-05-15T11:02:23.621Z,16.10
2023-05-15T11:05:02.036Z,15.73
2023-05-15T11:07:32.929Z,13.70
2023-05-15T11:10:42.159Z,13.87
2023-05-15T11:13:13.399Z,14.30
2023-05-15T11:15:45.665Z,14.80
2023-05-15T11:18:19.554Z,14.00
2023-05-15T11:21:11.507Z,13.70
2023-05-15T11:23:44.178Z,13.47
2023-05-15T11:26:20.222Z,13.00
2023-05-15T11:28:54.751Z,11.13
2023-05-15T11:31:33.111Z,11.17
2023-05-15T11:34:08.126Z,10.73
2023-05-15T11:36:41.609Z,10.37
2023-05-15T11:39:13.541Z,9.63
2023-05-15T11:41:47.236Z,9.33
2023-05-15T11:44:23.186Z,9.67
2023-05-15T11:46:58.021Z,9.90
2023-05-15T11:49:29.793Z,10.43
2023-05-15T11:52:01.235Z,9.93
2023-05-15T11:54:32.970Z,9.30
2023-05-15T11:57:10.077Z,9.10
2023-05-15T11:59:41.100Z,10.17
2023-05-15T12:02:12.521Z,8.73
2023-05-15T12:04:43.385Z,8.20
2023-05-15T12:07:14.832Z,8.43
2023-05-15T12:09:45.785Z,7.60
2023-05-15T12:12:19.211Z,7.67
2023-05-15T12:14:50.035Z,8.30
2023-05-15T12:17:21.544Z,7.80
2023-05-15T12:19:54.219Z,8.80
2023-05-15T12:22:26.554Z,7.80
2023-05-15T12:25:01.740Z,7.10
2023-05-15T12:27:35.857Z,7.17
2023-05-15T12:30:08.171Z,7.30
2023-05-15T12:32:40.604Z,7.80
2023-05-15T12:35:13.216Z,7.27
2023-05-15T12:37:45.000Z,6.40
2023-05-15T12:40:19.558Z,7.17
2023-05-15T12:42:56.425Z,7.60
2023-05-15T12:45:28.854Z,7.53
2023-05-15T12:48:02.025Z,7.47
2023-05-15T12:50:38.202Z,6.37
2023-05-15T12:53:09.029Z,6.60
2023-05-15T12:55:40.092Z,7.33
2023-05-15T12:58:15.353Z,6.87
2023-05-15T13:00:51.089Z,5.73
2023-05-15T13:03:24.574Z,6.50
2023-05-15T13:05:55.526Z,5.13
2023-05-15T13:08:26.788Z,5.70
2023-05-15T13:11:00.608Z,5.27
2023-05-15T13:13:48.812Z,5.27
2023-05-15T13:16:24.659Z,5.10
2023-05-15T13:18:56.117Z,4.80
2023-05-15T13:21:29.863Z,5.43
2023-05-15T13:24:00.921Z,4.80
2023-05-15T13:26:31.856Z,5.53
2023-05-15T13:29:05.817Z,5.40
2023-05-15T13:31:38.783Z,4.90
2023-05-15T13:34:10.069Z,4.93
2023-05-15T13:36:41.186Z,4.47
2023-05-15T13:39:12.031Z,4.73
2023-05-15T13:41:42.937Z,4.50
2023-05-15T13:44:16.395Z,4.50
2023-05-15T13:46:47.431Z,4.60
2023-05-15T13:49:18.316Z,5.60
2023-05-15T13:51:49.147Z,4.70
2023-05-15T13:54:21.232Z,5.50
2023-05-15T13:56:52.379Z,5.27
2023-05-15T13:59:25.947Z,6.13
2023-05-15T14:01:57.017Z,6.37
2023-05-15T14:04:28.374Z,5.53
2023-05-15T14:07:02.360Z,4.60
2023-05-15T14:09:33.539Z,5.90
2023-05-15T14:12:04.484Z,5.60
2023-05-15T14:14:38.133Z,6.87
2023-05-15T14:17:09.275Z,7.00
2023-05-15T14:19:40.560Z,6.90
2023-05-15T14:22:11.472Z,7.00
2023-05-15T14:24:42.322Z,6.20
2023-05-15T14:27:13.208Z,7.80
2023-05-15T14:29:48.557Z,6.83
2023-05-15T14:32:20.254Z,7.37
2023-05-15T14:34:51.228Z,7.30
2023-05-15T14:37:22.123Z,7.20
2023-05-15T14:39:53.012Z,7.30
2023-05-15T14:42:24.339Z,7.97
2023-05-15T14:44:57.771Z,6.83
2023-05-15T14:47:30.208Z,70.07
2023-05-15T14:50:01.245Z,31.10
2023-05-15T14:52:32.265Z,7.20
2023-05-15T14:57:47.715Z,9.17
2023-05-15T15:00:21.540Z,10.60
2023-05-15T15:02:52.672Z,13.53
2023-05-15T15:05:23.879Z,9.87
2023-05-15T15:08:03.820Z,9.17
2023-05-15T15:10:35.844Z,8.43
2023-05-15T15:13:07.669Z,7.10
2023-05-15T15:15:41.370Z,7.23
2023-05-15T15:18:12.572Z,6.50
2023-05-15T15:20:44.866Z,6.20
2023-05-15T15:23:15.914Z,6.33
2023-05-15T15:25:46.888Z,5.73
2023-05-15T15:28:17.723Z,5.23
2023-05-15T15:30:51.160Z,5.47
2023-05-15T15:33:21.946Z,4.70
2023-05-15T15:35:52.783Z,4.50
2023-05-15T15:38:23.854Z,4.70
2023-05-15T15:40:54.672Z,5.27
2023-05-15T15:43:25.725Z,6.27
2023-05-15T15:45:59.586Z,7.10
2023-05-15T15:48:30.492Z,8.40
2023-05-15T15:51:01.399Z,8.53
2023-05-15T15:53:34.171Z,7.90
2023-05-15T15:56:05.211Z,8.37
2023-05-15T15:58:36.358Z,8.30
2023-05-15T16:01:10.119Z,8.10
2023-05-15T16:03:41.011Z,8.53
2023-05-15T16:06:12.476Z,8.10
2023-05-15T16:08:43.320Z,7.33
2023-05-15T16:11:14.137Z,7.60
2023-05-15T16:13:45.007Z,8.10
2023-05-15T16:16:18.945Z,7.27
2023-05-15T16:18:50.344Z,7.47
2023-05-15T16:21:21.473Z,8.37
2023-05-15T16:23:52.313Z,8.30
2023-05-15T16:26:23.540Z,7.00
2023-05-15T16:28:54.627Z,21.80
2023-05-15T16:31:28.228Z,7.57
2023-05-15T16:34:02.826Z,6.67
2023-05-15T16:36:34.741Z,6.20
2023-05-15T16:39:05.867Z,6.37
2023-05-15T16:41:36.709Z,5.77
2023-05-15T16:44:11.068Z,5.90
2023-05-15T16:46:44.589Z,4.97
2023-05-15T16:49:15.424Z,5.30
2023-05-15T16:51:46.358Z,5.50
2023-05-15T16:54:22.047Z,5.43
2023-05-15T16:56:52.854Z,6.10
2023-05-15T16:59:23.721Z,6.03
2023-05-15T17:01:58.638Z,5.97
2023-05-15T17:04:33.061Z,6.00
2023-05-15T17:07:04.790Z,6.20
2023-05-15T17:09:38.246Z,6.00
2023-05-15T17:12:10.289Z,6.30
2023-05-15T17:14:41.169Z,5.70
2023-05-15T17:17:14.689Z,6.07
2023-05-15T17:19:45.579Z,5.13
2023-05-15T17:22:16.873Z,5.07
2023-05-15T17:24:51.004Z,4.87
2023-05-15T17:27:23.000Z,5.70
2023-05-15T17:29:53.970Z,5.93
2023-05-15T17:32:27.701Z,6.60
2023-05-15T17:34:58.693Z,7.70
2023-05-15T17:37:29.584Z,8.80
2023-05-15T17:40:00.431Z,8.73
2023-05-15T17:42:31.363Z,8.10
2023-05-15T17:45:02.733Z,7.70
2023-05-15T17:47:36.219Z,7.70
2023-05-15T17:50:07.894Z,7.83
2023-05-15T17:52:39.739Z,7.60
2023-05-15T17:55:14.033Z,8.20
2023-05-15T17:57:44.969Z,8.10
2023-05-15T18:00:17.880Z,8.17
2023-05-15T18:02:51.259Z,7.30
2023-05-15T18:05:22.118Z,7.30
2023-05-15T18:07:53.118Z,7.13
2023-05-15T18:10:24.186Z,7.50
2023-05-15T18:12:55.032Z,7.10
2023-05-15T18:15:26.221Z,7.47
2023-05-15T18:17:59.873Z,8.40
2023-05-15T18:20:30.797Z,8.93
2023-05-15T18:23:01.618Z,9.37
2023-05-15T18:25:36.769Z,8.70
2023-05-15T18:28:08.863Z,9.03
2023-05-15T18:30:39.862Z,9.30
2023-05-15T18:33:13.304Z,7.70
2023-05-15T18:35:44.151Z,8.23
2023-05-15T18:38:15.006Z,9.50
2023-05-15T18:40:49.096Z,9.27
2023-05-15T18:43:20.057Z,8.53
2023-05-15T18:45:51.098Z,9.20
2023-05-15T18:48:26.176Z,9.33
2023-05-15T18:50:57.177Z,9.20
2023-05-15T18:53:28.376Z,9.27
2023-05-15T18:55:59.195Z,9.00
2023-05-15T18:58:30.043Z,9.87
2023-05-15T19:01:00.855Z,9.80
2023-05-15T19:03:38.249Z,10.07
2023-05-15T19:06:09.183Z,9.43
2023-05-15T19:08:40.113Z,10.00
2023-05-15T19:11:12.420Z,9.80
2023-05-15T19:13:43.271Z,10.07
2023-05-15T19:16:14.149Z,10.10
2023-05-15T19:18:47.718Z,10.50
2023-05-15T19:21:21.112Z,12.10
2023-05-15T19:23:52.992Z,10.83
2023-05-15T19:26:24.375Z,10.80
2023-05-15T19:28:55.660Z,10.77
2023-05-15T19:31:31.263Z,11.37
2023-05-15T19:34:05.635Z,11.90
2023-05-15T19:36:36.466Z,11.50
2023-05-15T19:39:07.438Z,10.97
2023-05-15T19:41:38.227Z,11.37
2023-05-15T19:44:11.340Z,11.33
2023-05-15T19:46:42.737Z,11.40
2023-05-15T19:49:16.357Z,11.00
2023-05-15T19:51:47.170Z,11.47
2023-05-15T19:54:18.867Z,11.60
2023-05-15T19:56:49.747Z,11.37
2023-05-15T19:59:23.565Z,11.67
2023-05-15T20:01:54.568Z,11.60
2023-05-15T20:04:28.050Z,11.37
2023-05-15T20:06:58.857Z,12.30
2023-05-15T20:09:30.066Z,11.33
2023-05-15T20:12:03.367Z,11.57
2023-05-15T20:14:35.005Z,11.17
2023-05-15T20:17:06.058Z,11.90
2023-05-15T20:19:39.593Z,13.20
2023-05-15T20:22:10.483Z,13.37
2023-05-15T20:24:41.318Z,13.10
2023-05-15T20:27:12.152Z,13.50
2023-05-15T20:29:42.960Z,13.73
2023-05-15T20:32:14.071Z,11.60
2023-05-15T20:34:48.412Z,13.70
2023-05-15T20:37:19.455Z,13.47
2023-05-15T20:39:50.708Z,14.10
2023-05-15T20:42:21.524Z,12.47
2023-05-15T20:44:53.137Z,12.30
2023-05-15T20:47:24.140Z,12.30
2023-05-15T20:49:57.652Z,11.73
2023-05-15T20:52:31.433Z,13.53
2023-05-15T20:55:02.554Z,12.00
2023-05-15T20:57:33.422Z,10.80
2023-05-15T21:00:05.913Z,11.83
2023-05-15T21:02:36.765Z,11.70
2023-05-15T21:05:11.483Z,11.43
2023-05-15T21:07:42.403Z,11.83
2023-05-15T21:10:13.958Z,12.10
2023-05-15T21:12:45.001Z,11.03
2023-05-15T21:15:15.980Z,12.40
2023-05-15T21:17:46.967Z,11.77
2023-05-15T21:20:20.666Z,12.97
2023-05-15T21:22:51.528Z,13.00
2023-05-15T21:25:22.717Z,12.33
2023-05-15T21:27:53.544Z,12.67
2023-05-15T21:30:24.922Z,11.70
2023-05-15T21:32:56.143Z,11.27
2023-05-15T21:35:31.845Z,10.80
2023-05-15T21:38:03.569Z,11.60
2023-05-15T21:40:35.073Z,11.03
2023-05-15T21:43:05.998Z,11.47
2023-05-15T21:45:36.921Z,10.67
2023-05-15T21:48:08.155Z,11.80
2023-05-15T21:50:41.890Z,9.97
2023-05-15T21:53:12.716Z,11.47
2023-05-15T21:55:44.401Z,10.50
2023-05-15T21:58:15.314Z,10.23
2023-05-15T22:00:46.317Z,9.60
2023-05-15T22:03:18.279Z,8.37
2023-05-15T22:05:52.999Z,8.47
2023-05-15T22:08:24.025Z,7.57
2023-05-15T22:10:56.394Z,7.00
2023-05-15T22:13:27.224Z,7.10
2023-05-15T22:15:58.110Z,7.13
2023-05-15T22:18:29.119Z,7.27
2023-05-15T22:21:03.239Z,7.30
2023-05-15T22:23:34.320Z,7.27
2023-05-15T22:26:05.289Z,7.00
2023-05-15T22:28:36.105Z,6.97
2023-05-15T22:31:07.491Z,7.37
2023-05-15T22:33:41.420Z,6.57
2023-05-15T22:36:15.018Z,6.27
2023-05-15T22:38:45.857Z,6.63
2023-05-15T22:41:16.774Z,6.57
2023-05-15T22:43:47.641Z,6.50
2023-05-15T22:46:18.902Z,5.60
2023-05-15T22:48:49.730Z,6.57
2023-05-15T22:51:23.972Z,7.20
2023-05-15T22:53:54.878Z,6.30
2023-05-15T22:56:26.576Z,6.90
2023-05-15T22:58:57.413Z,6.90
2023-05-15T23:01:30.001Z,6.87
2023-05-15T23:04:00.955Z,7.40
2023-05-15T23:06:34.718Z,7.33
2023-05-15T23:09:05.911Z,7.40
2023-05-15T23:11:37.948Z,9.40
2023-05-15T23:14:09.533Z,10.27
2023-05-15T23:16:40.421Z,10.27
2023-05-15T23:19:11.448Z,13.47
2023-05-15T23:21:44.889Z,14.03
2023-05-15T23:24:16.304Z,14.40
2023-05-15T23:26:47.113Z,14.37
2023-05-15T23:29:17.932Z,14.90
2023-05-15T23:31:49.156Z,15.10
2023-05-15T23:34:20.194Z,14.47
2023-05-15T23:36:53.685Z,13.90
2023-05-15T23:39:24.532Z,15.23
2023-05-15T23:41:55.738Z,13.20
2023-05-15T23:44:26.749Z,12.63
2023-05-15T23:46:57.657Z,14.10
2023-05-15T23:49:28.617Z,14.00
2023-05-15T23:52:05.101Z,14.33
2023-05-15T23:54:36.028Z,12.73
2023-05-15T23:57:10.033Z,14.23
2023-05-15T23:59:40.991Z,13.13
